sensor_id;sensor_type;location;lat;lon;timestamp;P1;durP1;ratioP1;P2;durP2;ratioP2
5026;SDS011;2532;52.480;13.354;2023-05-07T04:01:03;14.17;;;11.63;;
5026;SDS011;2532;52.480;13.354;2023-05-07T04:03:30;12.50;;;10.70;;
5026;SDS011;2532;52.480;13.354;2023-05-07T04:05:57;12.60;;;11.17;;
5026;SDS011;2532;52.480;13.354;2023-05-07T04:08:24;16.47;;;10.87;;
5026;SDS011;2532;52.480;13.354;2023-05-07T04:10:54;13.97;;;11.40;;
5026;SDS011;2532;52.480;13.354;2023-05-07T04:13:21;15.87;;;12.20;;
5026;SDS011;2532;52.480;13.354;2023-05-07T04:15:48;12.70;;;10.60;;
5026;SDS011;2532;52.480;13.354;2023-05-07T04:18:17;13.90;;;11.43;;
5026;SDS011;2532;52.480;13.354;2023-05-07T04:20:47;14.90;;;11.50;;
5026;SDS011;2532;52.480;13.354;2023-05-07T04:23:16;17.23;;;12.10;;
5026;SDS011;2532;52.480;13.354;2023-05-07T04:25:46;13.20;;;10.30;;
5026;SDS011;2532;52.480;13.354;2023-05-07T04:28:17;15.23;;;10.50;;
5026;SDS011;2532;52.480;13.354;2023-05-07T04:30:46;14.80;;;11.70;;
5026;SDS011;2532;52.480;13.354;2023-05-07T04:33:16;13.97;;;10.60;;
5026;SDS011;2532;52.480;13.354;2023-05-07T04:35:49;14.30;;;12.00;;
5026;SDS011;2532;52.480;13.354;2023-05-07T04:38:18;20.50;;;11.30;;
5026;SDS011;2532;52.480;13.354;2023-05-07T04:41:02;11.80;;;9.90;;
5026;SDS011;2532;52.480;13.354;2023-05-07T04:43:31;13.87;;;9.60;;
5026;SDS011;2532;52.480;13.354;2023-05-07T04:46:03;15.40;;;10.80;;
5026;SDS011;2532;52.480;13.354;2023-05-07T04:48:34;12.63;;;9.90;;
5026;SDS011;2532;52.480;13.354;2023-05-07T04:51:02;13.30;;;10.53;;
5026;SDS011;2532;52.480;13.354;2023-05-07T04:53:30;12.57;;;9.37;;
5026;SDS011;2532;52.480;13.354;2023-05-07T04:55:58;11.43;;;9.67;;
5026;SDS011;2532;52.480;13.354;2023-05-07T04:58:27;13.80;;;9.80;;
5026;SDS011;2532;52.480;13.354;2023-05-07T05:00:56;11.40;;;9.27;;
5026;SDS011;2532;52.480;13.354;2023-05-07T05:03:27;13.43;;;8.93;;
5026;SDS011;2532;52.480;13.354;2023-05-07T05:05:57;10.83;;;8.97;;
5026;SDS011;2532;52.480;13.354;2023-05-07T05:08:27;11.60;;;8.63;;
5026;SDS011;2532;52.480;13.354;2023-05-07T05:10:56;10.77;;;8.70;;
5026;SDS011;2532;52.480;13.354;2023-05-07T05:13:24;9.97;;;8.87;;
5026;SDS011;2532;52.480;13.354;2023-05-07T05:15:55;11.33;;;9.10;;
5026;SDS011;2532;52.480;13.354;2023-05-07T05:18:27;11.30;;;8.60;;
5026;SDS011;2532;52.480;13.354;2023-05-07T05:20:54;9.60;;;7.40;;
5026;SDS011;2532;52.480;13.354;2023-05-07T05:23:24;11.83;;;9.10;;
5026;SDS011;2532;52.480;13.354;2023-05-07T05:25:55;9.97;;;8.47;;
5026;SDS011;2532;52.480;13.354;2023-05-07T05:28:23;10.07;;;8.10;;
5026;SDS011;2532;52.480;13.354;2023-05-07T05:30:51;10.33;;;8.20;;
5026;SDS011;2532;52.480;13.354;2023-05-07T05:33:19;10.50;;;9.10;;
5026;SDS011;2532;52.480;13.354;2023-05-07T05:35:46;14.63;;;8.13;;
5026;SDS011;2532;52.480;13.354;2023-05-07T05:38:15;8.37;;;7.27;;
5026;SDS011;2532;52.480;13.354;2023-05-07T05:40:43;9.63;;;8.13;;
5026;SDS011;2532;52.480;13.354;2023-05-07T05:43:11;9.20;;;7.63;;
5026;SDS011;2532;52.480;13.354;2023-05-07T05:45:40;12.67;;;8.90;;
5026;SDS011;2532;52.480;13.354;2023-05-07T05:48:11;9.50;;;8.20;;
5026;SDS011;2532;52.480;13.354;2023-05-07T05:50:39;11.13;;;9.27;;
5026;SDS011;2532;52.480;13.354;2023-05-07T05:53:06;15.20;;;7.60;;
5026;SDS011;2532;52.480;13.354;2023-05-07T05:55:35;10.13;;;8.40;;
5026;SDS011;2532;52.480;13.354;2023-05-07T05:58:03;11.53;;;9.03;;
5026;SDS011;2532;52.480;13.354;2023-05-07T06:00:31;12.80;;;8.90;;
5026;SDS011;2532;52.480;13.354;2023-05-07T06:02:58;13.23;;;9.30;;
5026;SDS011;2532;52.480;13.354;2023-05-07T06:05:26;10.37;;;8.50;;
5026;SDS011;2532;52.480;13.354;2023-05-07T06:07:56;9.60;;;7.90;;
5026;SDS011;2532;52.480;13.354;2023-05-07T06:10:29;10.00;;;8.17;;
5026;SDS011;2532;52.480;13.354;2023-05-07T06:12:58;11.33;;;8.57;;
5026;SDS011;2532;52.480;13.354;2023-05-07T06:15:29;10.27;;;8.20;;
5026;SDS011;2532;52.480;13.354;2023-05-07T06:17:57;10.80;;;8.30;;
5026;SDS011;2532;52.480;13.354;2023-05-07T06:20:27;12.13;;;8.40;;
5026;SDS011;2532;52.480;13.354;2023-05-07T06:22:54;10.83;;;8.63;;
5026;SDS011;2532;52.480;13.354;2023-05-07T06:25:21;10.37;;;8.10;;
5026;SDS011;2532;52.480;13.354;2023-05-07T06:27:51;9.60;;;8.20;;
5026;SDS011;2532;52.480;13.354;2023-05-07T06:30:20;10.17;;;7.60;;
5026;SDS011;2532;52.480;13.354;2023-05-07T06:32:48;10.30;;;8.80;;
5026;SDS011;2532;52.480;13.354;2023-05-07T06:35:16;12.90;;;8.10;;
5026;SDS011;2532;52.480;13.354;2023-05-07T06:37:46;12.10;;;8.80;;
5026;SDS011;2532;52.480;13.354;2023-05-07T06:40:14;14.03;;;8.97;;
5026;SDS011;2532;52.480;13.354;2023-05-07T06:42:50;10.30;;;8.93;;
5026;SDS011;2532;52.480;13.354;2023-05-07T06:45:33;10.50;;;9.40;;
5026;SDS011;2532;52.480;13.354;2023-05-07T06:48:14;9.57;;;7.53;;
5026;SDS011;2532;52.480;13.354;2023-05-07T06:50:54;10.33;;;8.60;;
5026;SDS011;2532;52.480;13.354;2023-05-07T06:53:28;9.90;;;7.87;;
5026;SDS011;2532;52.480;13.354;2023-05-07T06:55:59;12.97;;;8.47;;
5026;SDS011;2532;52.480;13.354;2023-05-07T06:58:46;11.83;;;8.53;;
5026;SDS011;2532;52.480;13.354;2023-05-07T07:01:25;8.67;;;7.77;;
5026;SDS011;2532;52.480;13.354;2023-05-07T07:03:57;10.60;;;7.20;;
5026;SDS011;2532;52.480;13.354;2023-05-07T07:06:26;10.90;;;7.80;;
5026;SDS011;2532;52.480;13.354;2023-05-07T07:09:07;10.03;;;7.00;;
5026;SDS011;2532;52.480;13.354;2023-05-07T07:11:35;9.93;;;7.57;;
5026;SDS011;2532;52.480;13.354;2023-05-07T07:14:02;9.67;;;8.20;;
5026;SDS011;2532;52.480;13.354;2023-05-07T07:16:33;8.60;;;7.10;;
5026;SDS011;2532;52.480;13.354;2023-05-07T07:19:05;11.33;;;7.67;;
5026;SDS011;2532;52.480;13.354;2023-05-07T07:21:32;8.47;;;7.23;;
5026;SDS011;2532;52.480;13.354;2023-05-07T07:23:59;9.40;;;6.80;;
5026;SDS011;2532;52.480;13.354;2023-05-07T07:26:27;10.47;;;7.33;;
5026;SDS011;2532;52.480;13.354;2023-05-07T07:28:54;11.03;;;7.70;;
5026;SDS011;2532;52.480;13.354;2023-05-07T07:31:21;8.77;;;7.40;;
5026;SDS011;2532;52.480;13.354;2023-05-07T07:33:50;8.93;;;6.60;;
5026;SDS011;2532;52.480;13.354;2023-05-07T07:36:18;8.93;;;6.90;;
5026;SDS011;2532;52.480;13.354;2023-05-07T07:38:46;9.77;;;6.00;;
5026;SDS011;2532;52.480;13.354;2023-05-07T07:41:21;8.63;;;7.10;;
5026;SDS011;2532;52.480;13.354;2023-05-07T07:43:58;10.90;;;6.97;;
5026;SDS011;2532;52.480;13.354;2023-05-07T07:46:25;9.97;;;7.20;;
5026;SDS011;2532;52.480;13.354;2023-05-07T07:48:56;7.93;;;6.53;;
5026;SDS011;2532;52.480;13.354;2023-05-07T07:51:25;11.27;;;6.97;;
5026;SDS011;2532;52.480;13.354;2023-05-07T07:53:52;6.67;;;6.00;;
5026;SDS011;2532;52.480;13.354;2023-05-07T07:56:22;6.73;;;6.03;;
5026;SDS011;2532;52.480;13.354;2023-05-07T07:58:50;7.33;;;5.90;;
5026;SDS011;2532;52.480;13.354;2023-05-07T08:01:17;9.40;;;6.43;;
5026;SDS011;2532;52.480;13.354;2023-05-07T08:03:44;6.50;;;5.83;;
5026;SDS011;2532;52.480;13.354;2023-05-07T08:06:13;5.80;;;5.20;;
5026;SDS011;2532;52.480;13.354;2023-05-07T08:08:41;6.17;;;5.30;;
5026;SDS011;2532;52.480;13.354;2023-05-07T08:11:11;6.77;;;5.30;;
5026;SDS011;2532;52.480;13.354;2023-05-07T08:13:38;8.80;;;5.43;;
5026;SDS011;2532;52.480;13.354;2023-05-07T08:16:06;10.73;;;5.70;;
5026;SDS011;2532;52.480;13.354;2023-05-07T08:18:33;5.80;;;5.10;;
5026;SDS011;2532;52.480;13.354;2023-05-07T08:21:01;7.87;;;6.43;;
5026;SDS011;2532;52.480;13.354;2023-05-07T08:23:41;10.60;;;5.40;;
5026;SDS011;2532;52.480;13.354;2023-05-07T08:26:09;7.10;;;4.83;;
5026;SDS011;2532;52.480;13.354;2023-05-07T08:28:37;6.33;;;5.13;;
5026;SDS011;2532;52.480;13.354;2023-05-07T08:31:06;7.73;;;5.73;;
5026;SDS011;2532;52.480;13.354;2023-05-07T08:33:36;9.17;;;5.13;;
5026;SDS011;2532;52.480;13.354;2023-05-07T08:36:04;6.10;;;5.03;;
5026;SDS011;2532;52.480;13.354;2023-05-07T08:38:31;6.93;;;5.37;;
5026;SDS011;2532;52.480;13.354;2023-05-07T08:41:00;4.80;;;4.40;;
5026;SDS011;2532;52.480;13.354;2023-05-07T08:43:28;5.10;;;4.50;;
5026;SDS011;2532;52.480;13.354;2023-05-07T08:46:00;5.83;;;4.73;;
5026;SDS011;2532;52.480;13.354;2023-05-07T08:48:29;8.83;;;6.00;;
5026;SDS011;2532;52.480;13.354;2023-05-07T08:50:57;9.33;;;4.70;;
5026;SDS011;2532;52.480;13.354;2023-05-07T08:53:25;7.17;;;5.40;;
5026;SDS011;2532;52.480;13.354;2023-05-07T08:55:53;6.43;;;5.00;;
5026;SDS011;2532;52.480;13.354;2023-05-07T08:58:28;6.87;;;5.27;;
5026;SDS011;2532;52.480;13.354;2023-05-07T09:00:55;7.77;;;5.60;;
5026;SDS011;2532;52.480;13.354;2023-05-07T09:03:23;6.40;;;4.83;;
5026;SDS011;2532;52.480;13.354;2023-05-07T09:05:50;5.10;;;4.23;;
5026;SDS011;2532;52.480;13.354;2023-05-07T09:08:17;5.93;;;4.80;;
5026;SDS011;2532;52.480;13.354;2023-05-07T09:10:44;10.23;;;4.50;;
5026;SDS011;2532;52.480;13.354;2023-05-07T09:13:14;6.63;;;5.07;;
5026;SDS011;2532;52.480;13.354;2023-05-07T09:15:45;8.10;;;5.00;;
5026;SDS011;2532;52.480;13.354;2023-05-07T09:18:12;8.80;;;4.80;;
5026;SDS011;2532;52.480;13.354;2023-05-07T09:20:40;6.80;;;5.70;;
5026;SDS011;2532;52.480;13.354;2023-05-07T09:23:07;6.50;;;4.67;;
5026;SDS011;2532;52.480;13.354;2023-05-07T09:25:35;7.23;;;4.50;;
5026;SDS011;2532;52.480;13.354;2023-05-07T09:28:04;5.97;;;4.87;;
5026;SDS011;2532;52.480;13.354;2023-05-07T09:30:32;5.87;;;4.87;;
5026;SDS011;2532;52.480;13.354;2023-05-07T09:33:03;6.37;;;4.97;;
5026;SDS011;2532;52.480;13.354;2023-05-07T09:35:33;7.40;;;4.90;;
5026;SDS011;2532;52.480;13.354;2023-05-07T09:38:02;10.80;;;5.20;;
5026;SDS011;2532;52.480;13.354;2023-05-07T09:40:30;5.70;;;4.50;;
5026;SDS011;2532;52.480;13.354;2023-05-07T09:43:07;6.00;;;4.63;;
5026;SDS011;2532;52.480;13.354;2023-05-07T09:45:36;5.27;;;4.60;;
5026;SDS011;2532;52.480;13.354;2023-05-07T09:48:09;24.53;;;6.80;;
5026;SDS011;2532;52.480;13.354;2023-05-07T09:50:40;7.50;;;5.37;;
5026;SDS011;2532;52.480;13.354;2023-05-07T09:53:14;5.37;;;4.20;;
5026;SDS011;2532;52.480;13.354;2023-05-07T09:55:47;7.23;;;5.60;;
5026;SDS011;2532;52.480;13.354;2023-05-07T09:58:15;7.37;;;5.00;;
5026;SDS011;2532;52.480;13.354;2023-05-07T10:00:45;5.77;;;5.13;;
5026;SDS011;2532;52.480;13.354;2023-05-07T10:03:21;6.90;;;4.47;;
5026;SDS011;2532;52.480;13.354;2023-05-07T10:05:51;7.37;;;4.80;;
5026;SDS011;2532;52.480;13.354;2023-05-07T10:08:21;4.87;;;4.00;;
5026;SDS011;2532;52.480;13.354;2023-05-07T10:10:49;6.53;;;5.80;;
5026;SDS011;2532;52.480;13.354;2023-05-07T10:13:17;5.90;;;4.27;;
5026;SDS011;2532;52.480;13.354;2023-05-07T10:15:48;4.90;;;4.40;;
5026;SDS011;2532;52.480;13.354;2023-05-07T10:18:18;4.90;;;4.23;;
5026;SDS011;2532;52.480;13.354;2023-05-07T10:20:54;5.80;;;4.03;;
5026;SDS011;2532;52.480;13.354;2023-05-07T10:23:40;5.57;;;4.20;;
5026;SDS011;2532;52.480;13.354;2023-05-07T10:26:11;4.83;;;3.50;;
5026;SDS011;2532;52.480;13.354;2023-05-07T10:28:41;7.20;;;4.80;;
5026;SDS011;2532;52.480;13.354;2023-05-07T10:31:20;5.80;;;4.27;;
5026;SDS011;2532;52.480;13.354;2023-05-07T10:34:06;5.40;;;3.80;;
5026;SDS011;2532;52.480;13.354;2023-05-07T10:36:37;4.73;;;3.67;;
5026;SDS011;2532;52.480;13.354;2023-05-07T10:39:07;5.00;;;4.20;;
5026;SDS011;2532;52.480;13.354;2023-05-07T10:41:35;4.03;;;3.30;;
5026;SDS011;2532;52.480;13.354;2023-05-07T10:44:03;11.37;;;7.20;;
5026;SDS011;2532;52.480;13.354;2023-05-07T10:46:31;4.20;;;3.80;;
5026;SDS011;2532;52.480;13.354;2023-05-07T10:49:08;5.33;;;3.37;;
5026;SDS011;2532;52.480;13.354;2023-05-07T10:51:39;4.30;;;3.60;;
5026;SDS011;2532;52.480;13.354;2023-05-07T10:54:22;4.60;;;3.57;;
5026;SDS011;2532;52.480;13.354;2023-05-07T10:56:52;5.47;;;3.50;;
5026;SDS011;2532;52.480;13.354;2023-05-07T10:59:33;3.70;;;3.20;;
5026;SDS011;2532;52.480;13.354;2023-05-07T11:02:09;5.90;;;3.87;;
5026;SDS011;2532;52.480;13.354;2023-05-07T11:04:40;3.53;;;3.23;;
5026;SDS011;2532;52.480;13.354;2023-05-07T11:09:55;6.20;;;5.23;;
5026;SDS011;2532;52.480;13.354;2023-05-07T11:15:35;4.47;;;3.83;;
5026;SDS011;2532;52.480;13.354;2023-05-07T11:18:11;4.70;;;3.50;;
5026;SDS011;2532;52.480;13.354;2023-05-07T11:26:22;4.83;;;3.27;;
5026;SDS011;2532;52.480;13.354;2023-05-07T11:28:52;4.40;;;3.83;;
5026;SDS011;2532;52.480;13.354;2023-05-07T11:31:22;7.50;;;4.87;;
5026;SDS011;2532;52.480;13.354;2023-05-07T11:33:51;4.00;;;3.40;;
5026;SDS011;2532;52.480;13.354;2023-05-07T11:36:33;4.17;;;3.50;;
5026;SDS011;2532;52.480;13.354;2023-05-07T11:39:01;4.10;;;3.70;;
5026;SDS011;2532;52.480;13.354;2023-05-07T11:41:34;5.07;;;3.97;;
5026;SDS011;2532;52.480;13.354;2023-05-07T11:44:03;4.90;;;3.70;;
5026;SDS011;2532;52.480;13.354;2023-05-07T11:46:31;4.43;;;3.40;;
5026;SDS011;2532;52.480;13.354;2023-05-07T11:49:00;5.63;;;3.60;;
5026;SDS011;2532;52.480;13.354;2023-05-07T11:51:28;5.00;;;3.07;;
5026;SDS011;2532;52.480;13.354;2023-05-07T11:54:11;5.10;;;3.47;;
5026;SDS011;2532;52.480;13.354;2023-05-07T11:56:46;4.07;;;3.20;;
5026;SDS011;2532;52.480;13.354;2023-05-07T11:59:17;3.87;;;3.03;;
5026;SDS011;2532;52.480;13.354;2023-05-07T12:01:45;5.00;;;3.37;;
5026;SDS011;2532;52.480;13.354;2023-05-07T12:04:16;8.13;;;4.17;;
5026;SDS011;2532;52.480;13.354;2023-05-07T12:06:47;6.17;;;3.93;;
5026;SDS011;2532;52.480;13.354;2023-05-07T12:09:17;5.60;;;4.00;;
5026;SDS011;2532;52.480;13.354;2023-05-07T12:11:45;4.40;;;3.97;;
5026;SDS011;2532;52.480;13.354;2023-05-07T12:14:13;4.77;;;4.27;;
5026;SDS011;2532;52.480;13.354;2023-05-07T12:16:42;3.90;;;3.50;;
5026;SDS011;2532;52.480;13.354;2023-05-07T12:19:12;4.80;;;4.10;;
5026;SDS011;2532;52.480;13.354;2023-05-07T12:21:41;4.07;;;3.50;;
5026;SDS011;2532;52.480;13.354;2023-05-07T12:24:09;4.67;;;3.80;;
5026;SDS011;2532;52.480;13.354;2023-05-07T12:26:39;4.60;;;3.40;;
5026;SDS011;2532;52.480;13.354;2023-05-07T12:29:11;3.40;;;3.10;;
5026;SDS011;2532;52.480;13.354;2023-05-07T12:32:07;4.03;;;3.53;;
5026;SDS011;2532;52.480;13.354;2023-05-07T12:34:42;6.37;;;3.93;;
5026;SDS011;2532;52.480;13.354;2023-05-07T12:37:22;4.60;;;3.57;;
5026;SDS011;2532;52.480;13.354;2023-05-07T12:40:03;5.47;;;3.77;;
5026;SDS011;2532;52.480;13.354;2023-05-07T12:42:34;5.70;;;3.80;;
5026;SDS011;2532;52.480;13.354;2023-05-07T12:45:12;5.03;;;4.53;;
5026;SDS011;2532;52.480;13.354;2023-05-07T12:47:43;6.87;;;4.50;;
5026;SDS011;2532;52.480;13.354;2023-05-07T12:50:13;5.00;;;3.90;;
5026;SDS011;2532;52.480;13.354;2023-05-07T12:52:42;6.53;;;3.57;;
5026;SDS011;2532;52.480;13.354;2023-05-07T12:55:14;4.63;;;3.90;;
5026;SDS011;2532;52.480;13.354;2023-05-07T12:57:45;9.10;;;4.27;;
5026;SDS011;2532;52.480;13.354;2023-05-07T13:00:16;10.60;;;6.77;;
5026;SDS011;2532;52.480;13.354;2023-05-07T13:02:44;6.87;;;4.13;;
5026;SDS011;2532;52.480;13.354;2023-05-07T13:05:12;3.20;;;2.90;;
5026;SDS011;2532;52.480;13.354;2023-05-07T13:07:40;3.90;;;3.50;;
5026;SDS011;2532;52.480;13.354;2023-05-07T13:10:10;3.30;;;3.00;;
5026;SDS011;2532;52.480;13.354;2023-05-07T13:12:38;3.77;;;3.43;;
5026;SDS011;2532;52.480;13.354;2023-05-07T13:15:08;4.10;;;3.20;;
5026;SDS011;2532;52.480;13.354;2023-05-07T13:17:35;4.80;;;3.80;;
5026;SDS011;2532;52.480;13.354;2023-05-07T13:20:03;4.63;;;3.40;;
5026;SDS011;2532;52.480;13.354;2023-05-07T13:22:33;4.47;;;3.00;;
5026;SDS011;2532;52.480;13.354;2023-05-07T13:25:00;4.20;;;3.30;;
5026;SDS011;2532;52.480;13.354;2023-05-07T13:27:37;3.37;;;3.07;;
5026;SDS011;2532;52.480;13.354;2023-05-07T13:30:05;3.73;;;3.17;;
5026;SDS011;2532;52.480;13.354;2023-05-07T13:32:35;3.70;;;3.10;;
5026;SDS011;2532;52.480;13.354;2023-05-07T13:35:02;4.00;;;2.90;;
5026;SDS011;2532;52.480;13.354;2023-05-07T13:37:30;5.33;;;4.03;;
5026;SDS011;2532;52.480;13.354;2023-05-07T13:39:58;4.20;;;3.60;;
5026;SDS011;2532;52.480;13.354;2023-05-07T13:42:26;3.70;;;3.20;;
5026;SDS011;2532;52.480;13.354;2023-05-07T13:44:54;4.00;;;3.10;;
5026;SDS011;2532;52.480;13.354;2023-05-07T13:47:25;7.10;;;4.00;;
5026;SDS011;2532;52.480;13.354;2023-05-07T13:49:53;4.73;;;3.30;;
5026;SDS011;2532;52.480;13.354;2023-05-07T13:52:24;13.13;;;3.87;;
5026;SDS011;2532;52.480;13.354;2023-05-07T13:54:52;6.30;;;3.20;;
5026;SDS011;2532;52.480;13.354;2023-05-07T13:57:20;9.73;;;7.43;;
5026;SDS011;2532;52.480;13.354;2023-05-07T13:59:47;5.90;;;4.77;;
5026;SDS011;2532;52.480;13.354;2023-05-07T14:02:17;7.43;;;5.00;;
5026;SDS011;2532;52.480;13.354;2023-05-07T14:04:46;10.13;;;6.60;;
5026;SDS011;2532;52.480;13.354;2023-05-07T14:07:14;7.33;;;4.67;;
5026;SDS011;2532;52.480;13.354;2023-05-07T14:09:44;5.93;;;3.63;;
5026;SDS011;2532;52.480;13.354;2023-05-07T14:12:11;5.80;;;4.33;;
5026;SDS011;2532;52.480;13.354;2023-05-07T14:14:39;5.70;;;3.40;;
5026;SDS011;2532;52.480;13.354;2023-05-07T14:17:07;4.03;;;3.40;;
5026;SDS011;2532;52.480;13.354;2023-05-07T14:19:36;6.40;;;3.30;;
5026;SDS011;2532;52.480;13.354;2023-05-07T14:22:09;5.43;;;3.47;;
5026;SDS011;2532;52.480;13.354;2023-05-07T14:24:36;3.50;;;3.20;;
5026;SDS011;2532;52.480;13.354;2023-05-07T14:27:04;4.53;;;2.83;;
5026;SDS011;2532;52.480;13.354;2023-05-07T14:29:35;5.80;;;3.40;;
5026;SDS011;2532;52.480;13.354;2023-05-07T14:32:02;5.67;;;3.20;;
5026;SDS011;2532;52.480;13.354;2023-05-07T14:34:30;5.50;;;5.00;;
5026;SDS011;2532;52.480;13.354;2023-05-07T14:36:58;6.83;;;4.13;;
5026;SDS011;2532;52.480;13.354;2023-05-07T14:39:28;4.80;;;4.17;;
5026;SDS011;2532;52.480;13.354;2023-05-07T14:41:55;5.10;;;3.90;;
5026;SDS011;2532;52.480;13.354;2023-05-07T14:44:23;4.07;;;3.67;;
5026;SDS011;2532;52.480;13.354;2023-05-07T14:46:50;6.80;;;4.00;;
5026;SDS011;2532;52.480;13.354;2023-05-07T14:49:19;3.67;;;3.17;;
5026;SDS011;2532;52.480;13.354;2023-05-07T14:51:48;8.50;;;3.73;;
5026;SDS011;2532;52.480;13.354;2023-05-07T14:54:15;4.80;;;3.83;;
5026;SDS011;2532;52.480;13.354;2023-05-07T14:56:44;4.37;;;3.60;;
5026;SDS011;2532;52.480;13.354;2023-05-07T14:59:11;4.50;;;3.70;;
5026;SDS011;2532;52.480;13.354;2023-05-07T15:01:38;5.70;;;3.57;;
5026;SDS011;2532;52.480;13.354;2023-05-07T15:04:10;4.40;;;3.73;;
5026;SDS011;2532;52.480;13.354;2023-05-07T15:06:37;3.90;;;3.50;;
5026;SDS011;2532;52.480;13.354;2023-05-07T15:09:04;5.13;;;3.13;;
5026;SDS011;2532;52.480;13.354;2023-05-07T15:11:31;4.40;;;3.37;;
5026;SDS011;2532;52.480;13.354;2023-05-07T15:13:59;4.40;;;3.27;;
5026;SDS011;2532;52.480;13.354;2023-05-07T15:16:26;4.30;;;3.70;;
5026;SDS011;2532;52.480;13.354;2023-05-07T15:18:53;5.40;;;4.50;;
5026;SDS011;2532;52.480;13.354;2023-05-07T15:21:20;4.90;;;4.40;;
5026;SDS011;2532;52.480;13.354;2023-05-07T15:23:47;3.63;;;3.33;;
5026;SDS011;2532;52.480;13.354;2023-05-07T15:26:14;4.03;;;3.40;;
5026;SDS011;2532;52.480;13.354;2023-05-07T15:28:41;5.50;;;4.23;;
5026;SDS011;2532;52.480;13.354;2023-05-07T15:31:09;4.03;;;3.53;;
5026;SDS011;2532;52.480;13.354;2023-05-07T15:33:37;3.23;;;2.93;;
5026;SDS011;2532;52.480;13.354;2023-05-07T15:36:05;3.97;;;3.00;;
5026;SDS011;2532;52.480;13.354;2023-05-07T15:38:33;4.70;;;3.90;;
5026;SDS011;2532;52.480;13.354;2023-05-07T15:41:00;4.67;;;3.73;;
5026;SDS011;2532;52.480;13.354;2023-05-07T15:43:27;3.57;;;3.27;;
5026;SDS011;2532;52.480;13.354;2023-05-07T15:45:54;5.50;;;3.47;;
5026;SDS011;2532;52.480;13.354;2023-05-07T15:48:23;5.10;;;3.53;;
5026;SDS011;2532;52.480;13.354;2023-05-07T15:50:49;4.17;;;3.77;;
5026;SDS011;2532;52.480;13.354;2023-05-07T15:53:16;4.20;;;3.70;;
5026;SDS011;2532;52.480;13.354;2023-05-07T15:55:43;4.27;;;3.60;;
5026;SDS011;2532;52.480;13.354;2023-05-07T15:58:11;4.37;;;3.60;;
5026;SDS011;2532;52.480;13.354;2023-05-07T16:00:38;7.07;;;4.20;;
5026;SDS011;2532;52.480;13.354;2023-05-07T16:03:06;4.30;;;3.40;;
5026;SDS011;2532;52.480;13.354;2023-05-07T16:05:34;8.80;;;4.07;;
5026;SDS011;2532;52.480;13.354;2023-05-07T16:08:02;5.93;;;4.30;;
5026;SDS011;2532;52.480;13.354;2023-05-07T16:10:29;6.33;;;4.20;;
5026;SDS011;2532;52.480;13.354;2023-05-07T16:12:56;4.13;;;3.70;;
5026;SDS011;2532;52.480;13.354;2023-05-07T16:15:23;5.40;;;4.73;;
5026;SDS011;2532;52.480;13.354;2023-05-07T16:17:50;5.40;;;4.33;;
5026;SDS011;2532;52.480;13.354;2023-05-07T16:20:21;7.30;;;3.90;;
5026;SDS011;2532;52.480;13.354;2023-05-07T16:22:51;4.40;;;4.00;;
5026;SDS011;2532;52.480;13.354;2023-05-07T16:25:18;4.30;;;3.90;;
5026;SDS011;2532;52.480;13.354;2023-05-07T16:27:45;4.60;;;3.80;;
5026;SDS011;2532;52.480;13.354;2023-05-07T16:30:12;4.43;;;3.90;;
5026;SDS011;2532;52.480;13.354;2023-05-07T16:32:39;4.30;;;3.90;;
5026;SDS011;2532;52.480;13.354;2023-05-07T16:35:07;4.30;;;3.87;;
5026;SDS011;2532;52.480;13.354;2023-05-07T16:37:34;4.83;;;4.03;;
5026;SDS011;2532;52.480;13.354;2023-05-07T16:40:03;5.57;;;4.30;;
5026;SDS011;2532;52.480;13.354;2023-05-07T16:42:31;4.83;;;4.33;;
5026;SDS011;2532;52.480;13.354;2023-05-07T16:44:58;5.30;;;3.60;;
5026;SDS011;2532;52.480;13.354;2023-05-07T16:47:26;8.87;;;7.33;;
5026;SDS011;2532;52.480;13.354;2023-05-07T16:49:53;3.97;;;3.60;;
5026;SDS011;2532;52.480;13.354;2023-05-07T16:52:20;4.20;;;3.80;;
5026;SDS011;2532;52.480;13.354;2023-05-07T16:54:47;6.60;;;4.43;;
5026;SDS011;2532;52.480;13.354;2023-05-07T16:57:15;4.63;;;3.37;;
5026;SDS011;2532;52.480;13.354;2023-05-07T16:59:42;6.73;;;5.00;;
5026;SDS011;2532;52.480;13.354;2023-05-07T17:02:09;5.37;;;4.57;;
5026;SDS011;2532;52.480;13.354;2023-05-07T17:04:36;5.60;;;4.20;;
5026;SDS011;2532;52.480;13.354;2023-05-07T17:07:03;5.70;;;4.70;;
5026;SDS011;2532;52.480;13.354;2023-05-07T17:09:30;4.60;;;3.90;;
5026;SDS011;2532;52.480;13.354;2023-05-07T17:11:57;3.77;;;3.47;;
5026;SDS011;2532;52.480;13.354;2023-05-07T17:14:26;6.30;;;4.70;;
5026;SDS011;2532;52.480;13.354;2023-05-07T17:16:53;5.40;;;4.13;;
5026;SDS011;2532;52.480;13.354;2023-05-07T17:19:21;4.43;;;4.03;;
5026;SDS011;2532;52.480;13.354;2023-05-07T17:21:48;5.57;;;4.40;;
5026;SDS011;2532;52.480;13.354;2023-05-07T17:24:15;4.67;;;3.90;;
5026;SDS011;2532;52.480;13.354;2023-05-07T17:26:42;5.43;;;3.80;;
5026;SDS011;2532;52.480;13.354;2023-05-07T17:29:09;5.73;;;4.27;;
5026;SDS011;2532;52.480;13.354;2023-05-07T17:31:37;5.10;;;4.20;;
5026;SDS011;2532;52.480;13.354;2023-05-07T17:34:04;9.50;;;7.70;;
5026;SDS011;2532;52.480;13.354;2023-05-07T17:36:31;5.57;;;4.30;;
5026;SDS011;2532;52.480;13.354;2023-05-07T17:38:58;4.73;;;3.77;;
5026;SDS011;2532;52.480;13.354;2023-05-07T17:41:25;5.57;;;4.57;;
5026;SDS011;2532;52.480;13.354;2023-05-07T17:43:52;4.20;;;3.60;;
5026;SDS011;2532;52.480;13.354;2023-05-07T17:46:19;5.77;;;4.60;;
5026;SDS011;2532;52.480;13.354;2023-05-07T17:48:47;5.23;;;4.00;;
5026;SDS011;2532;52.480;13.354;2023-05-07T17:51:16;6.27;;;4.30;;
5026;SDS011;2532;52.480;13.354;2023-05-07T17:53:42;6.20;;;5.30;;
5026;SDS011;2532;52.480;13.354;2023-05-07T17:56:09;5.27;;;4.37;;
5026;SDS011;2532;52.480;13.354;2023-05-07T17:58:37;9.20;;;6.67;;
5026;SDS011;2532;52.480;13.354;2023-05-07T18:01:04;8.67;;;6.30;;
5026;SDS011;2532;52.480;13.354;2023-05-07T18:03:31;7.63;;;4.47;;
5026;SDS011;2532;52.480;13.354;2023-05-07T18:06:00;7.73;;;3.90;;
5026;SDS011;2532;52.480;13.354;2023-05-07T18:08:27;6.23;;;4.53;;
5026;SDS011;2532;52.480;13.354;2023-05-07T18:11:00;3.63;;;3.30;;
5026;SDS011;2532;52.480;13.354;2023-05-07T18:13:27;4.13;;;3.40;;
5026;SDS011;2532;52.480;13.354;2023-05-07T18:15:54;5.73;;;3.53;;
5026;SDS011;2532;52.480;13.354;2023-05-07T18:18:21;5.10;;;4.03;;
5026;SDS011;2532;52.480;13.354;2023-05-07T18:20:50;5.43;;;4.47;;
5026;SDS011;2532;52.480;13.354;2023-05-07T18:23:18;4.33;;;3.93;;
5026;SDS011;2532;52.480;13.354;2023-05-07T18:25:45;5.60;;;4.07;;
5026;SDS011;2532;52.480;13.354;2023-05-07T18:28:12;4.80;;;4.23;;
5026;SDS011;2532;52.480;13.354;2023-05-07T18:30:39;5.33;;;4.23;;
5026;SDS011;2532;52.480;13.354;2023-05-07T18:33:06;4.23;;;3.63;;
5026;SDS011;2532;52.480;13.354;2023-05-07T18:35:33;9.57;;;4.93;;
5026;SDS011;2532;52.480;13.354;2023-05-07T18:38:01;4.57;;;3.87;;
5026;SDS011;2532;52.480;13.354;2023-05-07T18:40:29;6.63;;;5.37;;
5026;SDS011;2532;52.480;13.354;2023-05-07T18:42:56;4.57;;;3.50;;
5026;SDS011;2532;52.480;13.354;2023-05-07T18:45:24;5.23;;;3.80;;
5026;SDS011;2532;52.480;13.354;2023-05-07T18:47:51;5.27;;;4.77;;
5026;SDS011;2532;52.480;13.354;2023-05-07T18:50:18;5.93;;;4.60;;
5026;SDS011;2532;52.480;13.354;2023-05-07T18:52:45;4.70;;;4.00;;
5026;SDS011;2532;52.480;13.354;2023-05-07T18:55:12;7.53;;;4.43;;
5026;SDS011;2532;52.480;13.354;2023-05-07T18:57:43;5.13;;;3.93;;
5026;SDS011;2532;52.480;13.354;2023-05-07T19:00:11;5.70;;;4.27;;
5026;SDS011;2532;52.480;13.354;2023-05-07T19:02:39;6.10;;;4.43;;
5026;SDS011;2532;52.480;13.354;2023-05-07T19:05:06;5.67;;;4.20;;
5026;SDS011;2532;52.480;13.354;2023-05-07T19:07:33;5.10;;;4.43;;
5026;SDS011;2532;52.480;13.354;2023-05-07T19:10:00;4.87;;;4.37;;
5026;SDS011;2532;52.480;13.354;2023-05-07T19:12:27;6.30;;;4.10;;
5026;SDS011;2532;52.480;13.354;2023-05-07T19:14:56;7.37;;;4.67;;
5026;SDS011;2532;52.480;13.354;2023-05-07T19:17:23;5.90;;;4.83;;
5026;SDS011;2532;52.480;13.354;2023-05-07T19:19:50;8.33;;;4.20;;
5026;SDS011;2532;52.480;13.354;2023-05-07T19:22:17;6.47;;;4.90;;